Time;durP1;ratioP1;P1;durP2;ratioP2;P2;SDS_P1;SDS_P2;PMS_P1;PMS_P2;Temp;Humidity;BMP_temperature;BMP_pressure;BME280_temperature;BME280_humidity;BME280_pressure;Samples;Min_cycle;Max_cycle;Signal;HPM_P1;HPM_P2
2021/05/02 00:00:35;;;;;;;15.15;11.00;;;7.20;75.10;;;;;;5093558;28;20024;-37
2021/05/02 00:03:04;;;;;;;18.13;11.27;;;7.10;75.60;;;;;;5094036;28;20065;-36
2021/05/02 00:05:35;;;;;;;15.77;11.25;;;7.00;75.90;;;;;;5075650;28;20024;-37
2021/05/02 00:08:03;;;;;;;18.92;11.75;;;7.10;76.00;;;;;;5092328;28;20540;-35
2021/05/02 00:10:30;;;;;;;16.10;11.07;;;6.90;76.60;;;;;;5093505;28;20031;-37
2021/05/02 00:12:59;;;;;;;16.83;11.00;;;7.00;76.40;;;;;;5093424;28;20020;-36
2021/05/02 00:15:27;;;;;;;20.58;11.65;;;6.80;77.20;;;;;;5093553;28;20529;-36
2021/05/02 00:17:55;;;;;;;20.85;13.45;;;6.70;77.60;;;;;;5093565;28;20023;-36
2021/05/02 00:20:23;;;;;;;19.40;11.88;;;6.70;78.00;;;;;;5093493;28;20047;-37
2021/05/02 00:22:53;;;;;;;18.10;12.05;;;6.70;77.90;;;;;;5093728;28;20031;-36
2021/05/02 00:25:25;;;;;;;20.27;11.97;;;6.70;77.80;;;;;;5093892;28;20035;-37
2021/05/02 00:27:50;;;;;;;18.13;11.95;;;6.70;77.70;;;;;;5095230;28;20031;-37
2021/05/02 00:30:19;;;;;;;20.05;12.68;;;6.70;78.10;;;;;;5097656;28;20028;-37
2021/05/02 00:32:49;;;;;;;18.88;13.07;;;6.50;78.70;;;;;;5097625;28;20047;-36
2021/05/02 00:35:16;;;;;;;17.30;12.73;;;6.50;78.60;;;;;;5097494;28;20028;-37
2021/05/02 00:37:42;;;;;;;19.88;13.55;;;6.40;79.00;;;;;;5097684;28;20034;-38
2021/05/02 00:40:14;;;;;;;20.95;13.52;;;6.50;78.90;;;;;;5097545;28;20024;-37
2021/05/02 00:42:47;;;;;;;20.70;14.45;;;6.40;79.30;;;;;;5097620;28;20035;-37
2021/05/02 00:45:26;;;;;;;17.73;12.93;;;6.40;79.20;;;;;;5096505;28;20048;-36
2021/05/02 00:47:58;;;;;;;20.67;14.38;;;6.30;79.90;;;;;;5098195;28;20419;-37
2021/05/02 00:50:28;;;;;;;17.83;12.88;;;6.30;79.90;;;;;;5095844;28;20523;-36
2021/05/02 00:53:20;;;;;;;21.77;15.10;;;6.30;79.80;;;;;;5097043;28;20020;-37
2021/05/02 00:55:54;;;;;;;20.65;14.55;;;6.20;80.50;;;;;;5097130;28;20357;-37
2021/05/02 00:58:49;;;;;;;21.25;14.07;;;6.10;80.90;;;;;;5097073;28;20028;-37
2021/05/02 01:01:20;;;;;;;19.30;13.18;;;6.20;80.80;;;;;;5096539;28;20033;-36
2021/05/02 01:03:48;;;;;;;20.65;13.88;;;6.00;81.40;;;;;;5097039;28;20024;-36
2021/05/02 01:06:15;;;;;;;21.05;14.75;;;6.10;81.20;;;;;;5097210;28;20081;-36
2021/05/02 01:08:41;;;;;;;21.08;14.75;;;6.10;81.00;;;;;;5096619;28;20020;-37
2021/05/02 01:11:12;;;;;;;22.63;16.08;;;6.10;81.10;;;;;;5095986;28;20023;-37
2021/05/02 01:13:44;;;;;;;19.70;13.93;;;6.00;81.20;;;;;;5097793;28;20468;-35
2021/05/02 01:16:14;;;;;;;21.63;13.45;;;5.90;81.70;;;;;;5096577;28;20046;-35
2021/05/02 01:18:39;;;;;;;22.98;14.88;;;5.80;82.20;;;;;;5097195;28;20111;-34
2021/05/02 01:21:06;;;;;;;20.88;14.18;;;5.80;82.10;;;;;;5096358;28;20594;-35
2021/05/02 01:23:34;;;;;;;20.60;14.10;;;5.90;82.30;;;;;;5096795;28;20032;-35
2021/05/02 01:26:01;;;;;;;24.17;15.40;;;5.80;82.60;;;;;;5096383;28;20028;-35
2021/05/02 01:28:27;;;;;;;22.58;13.88;;;5.80;82.50;;;;;;5094791;28;20020;-34
2021/05/02 01:30:55;;;;;;;21.90;14.60;;;5.80;82.60;;;;;;5096633;28;20020;-35
2021/05/02 01:33:21;;;;;;;24.90;15.65;;;5.70;83.00;;;;;;5096540;28;20036;-35
2021/05/02 01:35:47;;;;;;;22.25;16.08;;;5.70;83.00;;;;;;5095055;28;20032;-35
2021/05/02 01:38:13;;;;;;;23.73;14.75;;;5.80;82.70;;;;;;5095863;28;20028;-35
2021/05/02 01:40:39;;;;;;;20.60;15.27;;;5.70;83.20;;;;;;5094911;28;20115;-36
2021/05/02 01:43:05;;;;;;;22.83;14.25;;;5.60;83.20;;;;;;5096236;28;20043;-37
2021/05/02 01:45:31;;;;;;;27.27;16.27;;;5.70;83.30;;;;;;5095761;28;20024;-34
2021/05/02 01:48:05;;;;;;;28.00;15.77;;;5.50;83.70;;;;;;5095904;28;20146;-35
2021/05/02 01:50:51;;;;;;;21.80;15.63;;;5.70;83.40;;;;;;5095562;28;20114;-34
2021/05/02 01:53:17;;;;;;;21.02;14.68;;;5.60;83.50;;;;;;5095872;28;20032;-35
2021/05/02 01:55:44;;;;;;;22.98;15.45;;;5.50;83.60;;;;;;5095934;28;20039;-35
2021/05/02 01:58:14;;;;;;;24.85;16.50;;;5.60;83.40;;;;;;5095860;28;20032;-34
2021/05/02 02:00:42;;;;;;;23.92;14.52;;;5.70;83.20;;;;;;5094569;28;20024;-36
2021/05/02 02:03:09;;;;;;;24.75;15.35;;;5.50;83.50;;;;;;5095862;28;20486;-36
2021/05/02 02:05:37;;;;;;;24.42;14.90;;;5.50;83.70;;;;;;5095495;28;20032;-36
2021/05/02 02:08:04;;;;;;;24.17;15.75;;;5.40;83.80;;;;;;5095632;28;20353;-35
2021/05/02 02:10:32;;;;;;;20.90;14.48;;;5.50;83.80;;;;;;5095236;28;20062;-35
2021/05/02 02:12:58;;;;;;;18.67;12.02;;;5.50;83.90;;;;;;5095602;28;20063;-34
2021/05/02 02:15:26;;;;;;;21.70;12.85;;;5.40;84.00;;;;;;5095524;28;20046;-34
2021/05/02 02:17:53;;;;;;;25.95;14.63;;;5.40;84.50;;;;;;5095454;28;20024;-34
2021/05/02 02:20:19;;;;;;;20.05;12.63;;;5.40;84.10;;;;;;5093802;28;20035;-35
2021/05/02 02:22:45;;;;;;;17.23;12.90;;;5.40;84.50;;;;;;5095455;28;20024;-35
2021/05/02 02:25:11;;;;;;;18.55;12.98;;;5.40;84.50;;;;;;5095312;28;20044;-35
2021/05/02 02:27:38;;;;;;;21.08;13.07;;;5.30;84.70;;;;;;5095247;28;20052;-34
2021/05/02 02:30:08;;;;;;;18.38;12.65;;;5.30;84.90;;;;;;5093864;28;20098;-34
2021/05/02 02:32:36;;;;;;;22.25;13.80;;;5.30;85.00;;;;;;5095012;28;20024;-35
2021/05/02 02:35:04;;;;;;;22.63;13.27;;;5.30;84.80;;;;;;5095186;28;20027;-35
2021/05/02 02:37:29;;;;;;;19.23;12.48;;;5.30;85.10;;;;;;5094813;28;20059;-35
2021/05/02 02:40:00;;;;;;;19.42;12.32;;;5.20;85.10;;;;;;5094994;28;20085;-35
2021/05/02 02:42:27;;;;;;;20.33;12.57;;;5.30;85.00;;;;;;5094797;28;20030;-35
2021/05/02 02:44:58;;;;;;;20.45;11.93;;;5.30;84.70;;;;;;5093437;28;20028;-34
2021/05/02 02:47:32;;;;;;;17.88;11.20;;;5.20;85.00;;;;;;5095040;28;20031;-34
2021/05/02 02:50:00;;;;;;;15.25;10.32;;;5.10;85.60;;;;;;5092639;28;20048;-35
2021/05/02 02:52:27;;;;;;;16.80;10.82;;;5.30;85.00;;;;;;5094694;28;20016;-35
2021/05/02 02:55:07;;;;;;;21.55;11.07;;;5.20;84.80;;;;;;5094586;28;20040;-34
2021/05/02 02:57:51;;;;;;;15.57;10.00;;;5.20;84.90;;;;;;5094573;28;20028;-35
2021/05/02 03:00:20;;;;;;;20.17;11.15;;;5.30;84.40;;;;;;5094897;28;20353;-34
2021/05/02 03:02:50;;;;;;;17.63;10.82;;;5.30;84.40;;;;;;5094372;28;20028;-34
2021/05/02 03:05:19;;;;;;;;;;;5.20;84.60;;;;;;5094991;28;20024;-34
2021/05/02 03:07:47;;;;;;;15.18;10.40;;;5.30;84.40;;;;;;5094509;28;19930;-34
2021/05/02 03:10:14;;;;;;;18.58;9.02;;;5.30;84.10;;;;;;5094271;28;20055;-35
2021/05/02 03:12:40;;;;;;;16.88;8.75;;;5.30;83.90;;;;;;5094244;28;20543;-35
2021/05/02 03:15:06;;;;;;;13.38;8.75;;;5.20;84.10;;;;;;5094142;28;20422;-34
2021/05/02 03:17:33;;;;;;;13.20;7.97;;;5.20;84.40;;;;;;5094186;28;20020;-35
2021/05/02 03:20:06;;;;;;;13.27;8.45;;;5.20;84.10;;;;;;5094063;28;20038;-35
2021/05/02 03:22:35;;;;;;;11.68;8.48;;;5.30;83.50;;;;;;5094464;28;20479;-35
2021/05/02 03:25:06;;;;;;;15.90;9.10;;;5.20;83.70;;;;;;5093892;28;20097;-35
2021/05/02 03:28:05;;;;;;;12.60;7.78;;;5.20;84.20;;;;;;5093984;28;20034;-35
2021/05/02 03:30:31;;;;;;;16.00;9.82;;;5.30;83.80;;;;;;5093278;28;20040;-35
2021/05/02 03:33:00;;;;;;;13.45;8.80;;;5.50;82.70;;;;;;5092525;28;20529;-35
2021/05/02 03:35:32;;;;;;;13.68;7.25;;;5.60;82.30;;;;;;5093778;28;20020;-35
2021/05/02 03:38:03;;;;;;;18.73;9.60;;;5.60;82.60;;;;;;5093923;28;20024;-35
2021/05/02 03:40:29;;;;;;;13.07;8.55;;;5.60;82.70;;;;;;5093643;28;20024;-35
2021/05/02 03:42:55;;;;;;;15.52;8.00;;;5.70;82.40;;;;;;5093713;28;20081;-35
2021/05/02 03:45:20;;;;;;;12.55;8.48;;;5.80;82.50;;;;;;5093657;28;20028;-35
2021/05/02 03:47:46;;;;;;;11.35;7.85;;;5.80;82.40;;;;;;5092485;28;20024;-35
2021/05/02 03:50:12;;;;;;;15.15;8.02;;;5.70;82.70;;;;;;5093499;28;20055;-35
2021/05/02 03:52:37;;;;;;;16.52;8.90;;;6.00;82.00;;;;;;5093851;28;20019;-35
2021/05/02 03:55:06;;;;;;;14.43;8.95;;;6.00;81.80;;;;;;5093823;28;20031;-35
2021/05/02 03:57:31;;;;;;;14.02;9.30;;;5.80;82.70;;;;;;5093469;28;20024;-35
2021/05/02 03:59:57;;;;;;;16.98;11.90;;;5.80;83.10;;;;;;5093491;28;20035;-35
2021/05/02 04:02:22;;;;;;;23.38;12.23;;;5.80;83.40;;;;;;5093165;28;20093;-35
2021/05/02 04:04:48;;;;;;;17.80;12.23;;;5.80;83.70;;;;;;5093401;28;20020;-35
2021/05/02 04:07:14;;;;;;;16.75;10.90;;;5.90;83.30;;;;;;5092177;28;20074;-35
2021/05/02 04:09:41;;;;;;;17.00;10.57;;;6.00;83.00;;;;;;5093802;28;20026;-34
2021/05/02 04:12:08;;;;;;;20.58;11.55;;;6.00;82.80;;;;;;5093463;28;20027;-34
2021/05/02 04:14:34;;;;;;;17.95;11.75;;;6.10;82.80;;;;;;5092525;28;20016;-34
2021/05/02 04:17:02;;;;;;;18.58;11.10;;;6.10;82.50;;;;;;5093570;28;20099;-35
2021/05/02 04:19:29;;;;;;;18.08;11.00;;;6.30;81.70;;;;;;5093542;28;20024;-35
2021/05/02 04:21:55;;;;;;;13.70;10.90;;;6.10;82.30;;;;;;5093474;28;20034;-35
2021/05/02 04:24:21;;;;;;;18.17;10.63;;;6.10;82.50;;;;;;5093356;28;20032;-35
2021/05/02 04:26:52;;;;;;;17.17;10.32;;;6.20;82.20;;;;;;5093325;28;20532;-35
2021/05/02 04:29:18;;;;;;;12.35;9.25;;;6.30;81.90;;;;;;5093519;28;20039;-34
2021/05/02 04:31:44;;;;;;;14.95;9.57;;;6.30;81.30;;;;;;5093084;28;20491;-34
2021/05/02 04:34:09;;;;;;;15.75;7.50;;;6.30;81.50;;;;;;5093299;28;20028;-35
2021/05/02 04:36:35;;;;;;;12.50;7.25;;;6.30;80.70;;;;;;5093051;28;20028;-35
2021/05/02 04:39:01;;;;;;;12.02;7.50;;;6.40;80.20;;;;;;5093347;28;20020;-34
2021/05/02 04:41:27;;;;;;;11.70;7.13;;;6.30;80.30;;;;;;5093256;28;20031;-34
2021/05/02 04:43:53;;;;;;;13.38;7.07;;;6.30;80.50;;;;;;5093312;28;20024;-35
2021/05/02 04:46:19;;;;;;;10.68;7.53;;;6.50;79.50;;;;;;5092939;28;20085;-34
2021/05/02 04:48:45;;;;;;;9.27;6.30;;;6.50;79.40;;;;;;5092927;28;20028;-34
2021/05/02 04:51:13;;;;;;;15.13;8.20;;;6.50;79.40;;;;;;5092740;28;20078;-34
2021/05/02 04:53:39;;;;;;;16.30;9.20;;;6.40;79.70;;;;;;5092727;28;20017;-34
2021/05/02 04:56:05;;;;;;;14.15;8.15;;;6.40;79.50;;;;;;5091488;28;20036;-34
2021/05/02 04:58:30;;;;;;;14.68;7.03;;;6.50;79.30;;;;;;5092885;28;20063;-34
2021/05/02 05:00:57;;;;;;;14.73;7.57;;;6.50;79.30;;;;;;5092988;28;20479;-34
2021/05/02 05:03:22;;;;;;;8.05;6.55;;;6.50;79.20;;;;;;5092951;28;20154;-35
2021/05/02 05:05:48;;;;;;;14.18;6.32;;;6.50;79.00;;;;;;5092948;28;20418;-35
2021/05/02 05:08:13;;;;;;;14.93;7.45;;;6.50;79.20;;;;;;5092807;28;20020;-35
2021/05/02 05:10:39;;;;;;;10.98;6.88;;;6.50;78.80;;;;;;5093247;28;20449;-35
2021/05/02 05:13:05;;;;;;;10.73;6.13;;;6.50;78.80;;;;;;5093401;28;20031;-35
2021/05/02 05:15:31;;;;;;;15.90;6.70;;;6.30;79.30;;;;;;5096569;28;20052;-35
2021/05/02 05:17:56;;;;;;;11.98;5.95;;;6.50;78.60;;;;;;5096690;28;20033;-35
2021/05/02 05:20:22;;;;;;;8.32;5.82;;;6.40;78.90;;;;;;5096721;28;20028;-39
2021/05/02 05:22:48;;;;;;;11.25;5.28;;;6.50;78.70;;;;;;5096599;28;20028;-35
2021/05/02 05:25:13;;;;;;;12.85;6.60;;;6.50;78.20;;;;;;5096259;28;20107;-35
2021/05/02 05:27:39;;;;;;;7.80;4.82;;;6.50;78.20;;;;;;5096481;28;20046;-34
2021/05/02 05:30:06;;;;;;;12.32;4.57;;;6.60;77.80;;;;;;5096164;28;20047;-34
2021/05/02 05:32:32;;;;;;;10.05;5.85;;;6.60;77.40;;;;;;5096150;28;20095;-34
2021/05/02 05:34:57;;;;;;;10.75;4.45;;;6.60;77.90;;;;;;5096243;28;20028;-34
2021/05/02 05:37:23;;;;;;;6.95;4.05;;;6.80;76.80;;;;;;5096143;28;20465;-35
2021/05/02 05:39:50;;;;;;;8.93;4.55;;;6.70;77.00;;;;;;5096300;28;20438;-34
2021/05/02 05:42:16;;;;;;;7.43;3.90;;;6.70;76.80;;;;;;5096305;28;20124;-35
2021/05/02 05:44:42;;;;;;;7.88;4.15;;;6.70;77.10;;;;;;5095935;28;20052;-34
2021/05/02 05:47:08;;;;;;;5.70;4.35;;;6.80;76.40;;;;;;5096024;28;20020;-35
2021/05/02 05:49:34;;;;;;;6.68;3.67;;;6.80;76.30;;;;;;5095933;28;20495;-34
2021/05/02 05:52:00;;;;;;;14.02;5.65;;;6.70;76.50;;;;;;5096105;28;20099;-34
2021/05/02 05:54:25;;;;;;;9.00;4.18;;;6.80;76.10;;;;;;5095671;28;20421;-34
2021/05/02 05:56:51;;;;;;;13.30;5.32;;;6.90;76.00;;;;;;5095915;28;20085;-34
2021/05/02 05:59:17;;;;;;;6.50;3.38;;;6.90;75.70;;;;;;5095983;28;20476;-34
2021/05/02 06:01:43;;;;;;;5.72;3.15;;;6.90;75.60;;;;;;5095989;28;20024;-35
2021/05/02 06:04:08;;;;;;;9.80;3.25;;;7.00;75.40;;;;;;5095867;28;20482;-34
2021/05/02 06:06:38;;;;;;;4.70;3.40;;;7.00;75.10;;;;;;5096001;28;20036;-35
2021/05/02 06:09:07;;;;;;;14.85;4.07;;;7.00;75.50;;;;;;5095813;28;20107;-34
2021/05/02 06:11:33;;;;;;;5.28;2.95;;;7.10;74.80;;;;;;5095705;28;20024;-34
2021/05/02 06:14:00;;;;;;;6.85;3.10;;;7.20;74.50;;;;;;5095646;28;20028;-34
2021/05/02 06:16:26;;;;;;;8.27;3.42;;;7.30;74.50;;;;;;5095420;28;20039;-34
2021/05/02 06:18:53;;;;;;;7.82;2.92;;;7.30;74.10;;;;;;5095570;28;20103;-35
2021/05/02 06:21:19;;;;;;;7.80;2.72;;;7.20;74.70;;;;;;5095406;28;20039;-34
2021/05/02 06:23:46;;;;;;;8.95;3.10;;;7.40;73.50;;;;;;5095453;28;20036;-34
2021/05/02 06:26:13;;;;;;;8.88;2.75;;;7.50;73.20;;;;;;5094450;28;20028;-35
2021/05/02 06:28:40;;;;;;;10.55;3.55;;;7.60;72.80;;;;;;5095321;28;20465;-35
2021/05/02 06:31:06;;;;;;;8.38;3.17;;;7.80;71.50;;;;;;5095244;28;20380;-34
2021/05/02 06:33:32;;;;;;;6.82;2.28;;;7.80;70.80;;;;;;5093642;28;20020;-35
2021/05/02 06:35:57;;;;;;;6.93;2.03;;;7.90;70.20;;;;;;5095572;28;20063;-38
2021/05/02 06:38:23;;;;;;;4.93;2.40;;;7.60;70.90;;;;;;5094890;28;20024;-35
2021/05/02 06:40:48;;;;;;;7.22;1.92;;;8.10;69.80;;;;;;5095082;28;20422;-35
2021/05/02 06:43:14;;;;;;;8.57;2.40;;;8.30;68.40;;;;;;5095172;28;20464;-35
2021/05/02 06:45:40;;;;;;;2.85;1.58;;;8.00;68.80;;;;;;5094713;28;20024;-35
2021/05/02 06:48:06;;;;;;;5.65;2.05;;;8.00;68.20;;;;;;5094804;28;20091;-35
2021/05/02 06:50:31;;;;;;;5.57;1.67;;;8.30;67.10;;;;;;5094403;28;20036;-35
2021/05/02 06:52:57;;;;;;;4.25;2.03;;;8.20;66.90;;;;;;5093319;28;20028;-35
2021/05/02 06:55:23;;;;;;;7.32;2.30;;;8.20;66.50;;;;;;5094519;28;20035;-35
2021/05/02 06:57:48;;;;;;;2.90;2.00;;;8.30;66.50;;;;;;5094621;28;20031;-35
2021/05/02 07:00:14;;;;;;;6.32;2.53;;;8.70;65.30;;;;;;5094729;28;20028;-35
2021/05/02 07:02:40;;;;;;;3.38;1.65;;;8.60;64.50;;;;;;5094346;28;20020;-35
2021/05/02 07:05:06;;;;;;;2.88;2.58;;;8.60;64.10;;;;;;5094544;28;20061;-35
2021/05/02 07:07:32;;;;;;;5.85;1.95;;;8.80;63.10;;;;;;5094646;28;20040;-35
2021/05/02 07:09:57;;;;;;;8.15;3.05;;;8.70;63.20;;;;;;5094288;28;20105;-34
2021/05/02 07:12:24;;;;;;;4.78;2.47;;;8.50;63.80;;;;;;5094247;28;20411;-35
2021/05/02 07:14:50;;;;;;;5.30;2.00;;;8.50;63.70;;;;;;5094471;28;20028;-35
2021/05/02 07:17:16;;;;;;;6.90;1.75;;;8.40;63.40;;;;;;5092760;28;20422;-35
2021/05/02 07:19:42;;;;;;;7.43;3.60;;;8.50;63.80;;;;;;5094996;28;20111;-35
2021/05/02 07:22:08;;;;;;;8.45;2.05;;;8.50;64.00;;;;;;5094624;28;20055;-38
2021/05/02 07:24:33;;;;;;;4.85;2.53;;;8.40;63.50;;;;;;5094141;28;20031;-37
2021/05/02 07:26:59;;;;;;;6.55;2.28;;;8.60;63.50;;;;;;5094517;28;20031;-34
2021/05/02 07:29:25;;;;;;;2.80;1.80;;;8.80;62.20;;;;;;5095048;28;20375;-34
2021/05/02 07:31:51;;;;;;;6.05;2.78;;;8.90;60.90;;;;;;5094178;28;20066;-34
2021/05/02 07:34:17;;;;;;;5.22;1.83;;;8.90;61.50;;;;;;5094041;28;20020;-34
2021/05/02 07:36:43;;;;;;;4.90;2.50;;;9.20;60.90;;;;;;5092569;28;20043;-35
2021/05/02 07:39:09;;;;;;;3.47;2.15;;;9.80;59.20;;;;;;5094664;28;20027;-34
2021/05/02 07:41:35;;;;;;;13.15;2.53;;;9.80;58.40;;;;;;5094328;28;20032;-35
2021/05/02 07:44:01;;;;;;;2.80;2.00;;;10.20;56.70;;;;;;5094269;28;20039;-36
2021/05/02 07:46:26;;;;;;;4.72;2.75;;;10.20;55.80;;;;;;5094013;28;20036;-35
2021/05/02 07:48:52;;;;;;;6.60;1.92;;;9.90;56.80;;;;;;5094041;28;20012;-34
2021/05/02 07:51:18;;;;;;;3.70;2.00;;;9.80;57.30;;;;;;5093279;28;20067;-34
2021/05/02 07:53:43;;;;;;;7.85;2.05;;;10.00;56.50;;;;;;5091908;28;20472;-35
2021/05/02 07:56:09;;;;;;;7.28;1.95;;;10.50;54.40;;;;;;5093696;28;20046;-35
2021/05/02 07:58:35;;;;;;;3.88;2.17;;;11.00;51.40;;;;;;5094022;28;20383;-34
2021/05/02 08:01:01;;;;;;;5.95;1.65;;;10.80;51.00;;;;;;5093692;28;20046;-34
2021/05/02 08:03:26;;;;;;;6.25;1.90;;;10.80;50.90;;;;;;5093368;28;20095;-35
2021/05/02 08:05:52;;;;;;;5.18;1.83;;;10.30;52.50;;;;;;5093328;28;20525;-35
2021/05/02 08:08:18;;;;;;;3.95;1.65;;;11.10;51.20;;;;;;5093760;28;20043;-35
2021/05/02 08:10:44;;;;;;;5.30;1.67;;;10.10;53.00;;;;;;5092023;28;20124;-35
2021/05/02 08:13:09;;;;;;;5.25;1.90;;;9.70;54.00;;;;;;5093354;28;20020;-37
2021/05/02 08:15:35;;;;;;;3.92;1.65;;;9.60;54.60;;;;;;5092326;28;20468;-36
2021/05/02 08:18:01;;;;;;;6.00;1.88;;;9.30;55.00;;;;;;5091963;28;20035;-36
2021/05/02 08:20:28;;;;;;;8.75;2.20;;;9.50;53.80;;;;;;5093886;28;20081;-35
2021/05/02 08:22:53;;;;;;;1.83;1.65;;;10.50;51.90;;;;;;5091789;28;20537;-35
2021/05/02 08:25:20;;;;;;;4.88;2.17;;;11.10;49.80;;;;;;5092890;28;20020;-34
2021/05/02 08:27:47;;;;;;;5.13;2.00;;;11.50;48.50;;;;;;5093008;28;20077;-34
2021/05/02 08:30:14;;;;;;;2.38;1.58;;;11.80;47.50;;;;;;5092917;28;20050;-34
2021/05/02 08:32:39;;;;;;;11.32;2.10;;;12.20;46.40;;;;;;5092862;28;20030;-34
2021/05/02 08:35:06;;;;;;;9.95;2.90;;;12.10;46.60;;;;;;5093469;28;20028;-35
2021/05/02 08:37:32;;;;;;;6.18;1.90;;;11.90;47.00;;;;;;5091534;28;20047;-35
2021/05/02 08:39:58;;;;;;;3.95;1.67;;;12.20;46.30;;;;;;5092955;28;20056;-34
2021/05/02 08:42:23;;;;;;;4.28;1.65;;;12.00;44.90;;;;;;5092888;28;20029;-35
2021/05/02 08:44:50;;;;;;;4.32;1.80;;;11.30;48.20;;;;;;5093641;28;20028;-35
2021/05/02 08:47:16;;;;;;;4.55;1.90;;;10.00;54.30;;;;;;5092933;28;20024;-35
2021/05/02 08:49:42;;;;;;;3.40;2.03;;;9.80;56.50;;;;;;5095454;28;20044;-35
2021/05/02 08:52:08;;;;;;;5.65;2.40;;;9.40;57.60;;;;;;5097168;28;20016;-35
2021/05/02 08:54:34;;;;;;;4.50;2.03;;;9.60;57.50;;;;;;5096936;28;20020;-35
2021/05/02 08:57:00;;;;;;;6.55;2.22;;;9.70;56.80;;;;;;5097259;28;20046;-35
2021/05/02 08:59:25;;;;;;;6.65;2.78;;;10.40;55.50;;;;;;5097207;28;20093;-35
2021/05/02 09:01:56;;;;;;;4.40;2.15;;;11.80;50.70;;;;;;5097038;28;20103;-36
2021/05/02 09:04:21;;;;;;;;;;;12.80;47.10;;;;;;5097408;28;20017;-36
2021/05/02 09:06:47;;;;;;;2.47;1.98;;;11.80;49.30;;;;;;5096680;28;19908;-35
2021/05/02 09:09:13;;;;;;;5.78;3.13;;;11.00;51.20;;;;;;5096683;28;20414;-36
2021/05/02 09:11:43;;;;;;;10.35;2.85;;;9.90;55.60;;;;;;5095237;28;20043;-36
2021/05/02 09:14:18;;;;;;;5.63;2.80;;;9.60;57.60;;;;;;5096627;28;20468;-36
2021/05/02 09:16:54;;;;;;;12.68;2.58;;;9.40;58.30;;;;;;5095106;28;20031;-36
2021/05/02 09:19:23;;;;;;;8.75;4.13;;;9.30;59.30;;;;;;5096471;28;20028;-36
2021/05/02 09:21:50;;;;;;;5.00;2.55;;;9.10;60.60;;;;;;5096588;28;20028;-36
2021/05/02 09:24:27;;;;;;;4.75;2.10;;;10.00;58.30;;;;;;5096257;28;20024;-35
2021/05/02 09:27:04;;;;;;;6.20;2.05;;;11.40;53.80;;;;;;5096478;28;20111;-35
2021/05/02 09:29:31;;;;;;;11.55;2.10;;;12.20;47.40;;;;;;5096627;28;20032;-35
2021/05/02 09:31:58;;;;;;;2.30;1.20;;;11.80;45.40;;;;;;5095195;28;20357;-35
2021/05/02 09:34:24;;;;;;;4.90;1.70;;;11.90;46.70;;;;;;5095147;28;20383;-36
2021/05/02 09:37:02;;;;;;;5.57;1.58;;;13.30;43.10;;;;;;5096214;28;20073;-36
2021/05/02 09:39:48;;;;;;;3.05;1.52;;;14.40;40.70;;;;;;5095809;28;20091;-36
2021/05/02 09:42:18;;;;;;;3.90;1.85;;;14.50;39.30;;;;;;5094157;28;20028;-35
2021/05/02 09:44:46;;;;;;;4.63;1.88;;;13.30;41.90;;;;;;5095977;28;20043;-35
2021/05/02 09:47:33;;;;;;;6.45;3.28;;;13.20;41.70;;;;;;5095936;28;20502;-35
2021/05/02 09:50:23;;;;;;;6.10;1.85;;;13.80;40.70;;;;;;5095919;28;20052;-35
2021/05/02 09:52:57;;;;;;;3.25;1.77;;;13.20;41.30;;;;;;5094750;28;20544;-35
2021/05/02 09:55:33;;;;;;;6.45;1.73;;;12.60;42.60;;;;;;5095767;28;20024;-36
2021/05/02 09:58:11;;;;;;;4.10;1.33;;;11.20;44.10;;;;;;5096065;28;20055;-36
2021/05/02 10:00:42;;;;;;;6.38;1.73;;;10.70;46.10;;;;;;5094386;28;20028;-36
2021/05/02 10:03:16;;;;;;;4.65;1.70;;;10.70;46.70;;;;;;5095895;28;20439;-37
2021/05/02 10:06:03;;;;;;;3.10;2.03;;;10.70;47.10;;;;;;5094414;28;20074;-35
2021/05/02 10:08:34;;;;;;;2.72;1.63;;;11.00;46.60;;;;;;5095727;28;20023;-35
2021/05/02 10:11:08;;;;;;;1.95;1.20;;;11.00;46.20;;;;;;5094347;28;20058;-35
2021/05/02 10:13:35;;;;;;;3.40;1.92;;;10.70;45.20;;;;;;5095330;28;20024;-37
2021/05/02 10:16:02;;;;;;;4.95;1.40;;;10.80;44.90;;;;;;5096035;28;20031;-36
2021/05/02 10:18:32;;;;;;;2.53;1.63;;;10.70;45.70;;;;;;5095452;28;20028;-36
2021/05/02 10:20:58;;;;;;;3.45;1.63;;;10.50;46.60;;;;;;5094167;28;20027;-36
2021/05/02 10:23:24;;;;;;;2.00;1.35;;;10.60;47.30;;;;;;5095701;28;20097;-35
2021/05/02 10:25:54;;;;;;;3.05;1.65;;;10.50;48.10;;;;;;5096116;28;20540;-36
2021/05/02 10:28:22;;;;;;;4.28;2.60;;;10.50;48.50;;;;;;5096014;28;20123;-36
2021/05/02 10:30:51;;;;;;;3.58;1.95;;;10.70;48.70;;;;;;5095362;28;20024;-35
2021/05/02 10:33:33;;;;;;;7.78;2.97;;;10.60;49.30;;;;;;5095120;28;20046;-35
2021/05/02 10:36:23;;;;;;;3.97;1.77;;;10.60;49.00;;;;;;5095137;28;20025;-36
2021/05/02 10:38:49;;;;;;;2.22;1.58;;;10.60;48.60;;;;;;5094745;28;20043;-36
2021/05/02 10:41:29;;;;;;;6.97;1.80;;;10.50;48.90;;;;;;5095052;28;20028;-36
2021/05/02 10:44:21;;;;;;;2.50;1.67;;;10.70;47.80;;;;;;5095270;28;20032;-39
2021/05/02 10:46:53;;;;;;;9.00;3.45;;;10.90;46.80;;;;;;5093149;28;20059;-35
2021/05/02 10:49:19;;;;;;;2.90;1.65;;;10.70;46.30;;;;;;5095037;28;20024;-35
2021/05/02 10:51:46;;;;;;;4.95;2.33;;;11.10;45.00;;;;;;5094388;28;20063;-35
2021/05/02 10:54:16;;;;;;;4.35;1.80;;;12.00;43.40;;;;;;5094792;28;20514;-35
2021/05/02 10:56:51;;;;;;;3.83;2.63;;;12.10;42.90;;;;;;5094704;28;20019;-37
2021/05/02 10:59:18;;;;;;;1.27;1.17;;;12.80;41.60;;;;;;5094920;28;20028;-35
2021/05/02 11:01:44;;;;;;;2.67;1.50;;;11.90;42.10;;;;;;5095812;28;20356;-35
2021/05/02 11:04:10;;;;;;;5.35;2.85;;;11.80;41.90;;;;;;5094930;28;20047;-36
2021/05/02 11:06:38;;;;;;;2.55;1.35;;;11.10;43.60;;;;;;5094794;28;20101;-35
2021/05/02 11:09:16;;;;;;;2.17;1.30;;;10.80;44.50;;;;;;5094560;28;20016;-36
2021/05/02 11:11:47;;;;;;;3.60;1.33;;;11.20;44.20;;;;;;5094722;28;20520;-35
2021/05/02 11:14:18;;;;;;;3.15;1.38;;;11.20;44.20;;;;;;5094983;28;20134;-35
2021/05/02 11:16:48;;;;;;;2.03;1.58;;;10.80;44.80;;;;;;5094912;28;20121;-35
2021/05/02 11:19:35;;;;;;;2.28;1.20;;;10.60;45.40;;;;;;5094020;28;20028;-36
2021/05/02 11:22:07;;;;;;;2.75;1.15;;;11.00;44.70;;;;;;5094090;28;20032;-39
2021/05/02 11:24:39;;;;;;;7.15;2.13;;;11.60;43.50;;;;;;5094595;28;20116;-35
2021/05/02 11:32:32;;;;;;;2.42;1.38;;;12.30;41.50;;;;;;5094543;28;20031;-34
2021/05/02 11:35:19;;;;;;;4.15;2.00;;;11.50;42.90;;;;;;5093858;28;20127;-35
2021/05/02 11:38:05;;;;;;;5.05;1.50;;;11.00;44.00;;;;;;5094362;28;20053;-35
2021/05/02 11:40:31;;;;;;;6.32;1.23;;;10.90;43.90;;;;;;5094030;28;20055;-35
2021/05/02 11:42:57;;;;;;;2.33;1.45;;;10.90;43.80;;;;;;5094122;28;20059;-36
2021/05/02 11:45:31;;;;;;;2.40;1.33;;;11.10;43.10;;;;;;5093970;28;20031;-36
2021/05/02 11:47:58;;;;;;;3.53;1.73;;;11.30;42.50;;;;;;5093750;28;20103;-36
2021/05/02 11:50:24;;;;;;;1.17;1.02;;;11.80;41.60;;;;;;5093192;28;20518;-35
2021/05/02 11:52:54;;;;;;;4.00;1.65;;;11.90;40.50;;;;;;5093517;28;20023;-36
2021/05/02 11:55:30;;;;;;;3.78;1.92;;;12.10;39.60;;;;;;5091952;28;20037;-35
2021/05/02 11:57:57;;;;;;;1.73;1.10;;;12.10;39.00;;;;;;5093645;28;20479;-36
2021/05/02 12:00:44;;;;;;;3.72;1.27;;;11.80;39.70;;;;;;5093515;28;20069;-35
2021/05/02 12:03:18;;;;;;;2.40;1.77;;;12.00;39.10;;;;;;5092529;28;20100;-36
2021/05/02 12:06:03;;;;;;;2.53;1.48;;;11.80;40.00;;;;;;5093840;28;20534;-36
2021/05/02 12:08:30;;;;;;;7.03;1.50;;;11.80;39.70;;;;;;5093435;28;20436;-35
2021/05/02 12:11:01;;;;;;;2.83;1.10;;;12.10;39.30;;;;;;5093128;28;20071;-35
2021/05/02 12:13:31;;;;;;;5.03;1.63;;;11.60;39.80;;;;;;5093381;28;20028;-36
2021/05/02 12:16:00;;;;;;;3.83;1.30;;;11.20;40.20;;;;;;5093250;28;20466;-36
2021/05/02 12:18:51;;;;;;;2.50;1.52;;;10.80;40.60;;;;;;5093585;28;20053;-35
2021/05/02 12:21:26;;;;;;;4.07;1.33;;;10.70;41.60;;;;;;5093549;28;20043;-35
2021/05/02 12:23:53;;;;;;;2.55;2.30;;;10.90;41.50;;;;;;5092495;28;20110;-36
2021/05/02 12:26:19;;;;;;;2.00;1.60;;;11.00;41.50;;;;;;5093050;28;20055;-35
2021/05/02 12:28:46;;;;;;;2.45;1.52;;;10.90;42.30;;;;;;5093509;28;20028;-37
2021/05/02 12:31:14;;;;;;;3.75;1.23;;;10.90;42.40;;;;;;5093156;28;20016;-36
2021/05/02 12:33:41;;;;;;;2.78;1.02;;;10.80;42.40;;;;;;5092828;28;20020;-37
2021/05/02 12:36:09;;;;;;;2.70;1.05;;;10.80;42.30;;;;;;5092877;28;20026;-36
2021/05/02 12:38:36;;;;;;;1.95;1.13;;;11.80;40.70;;;;;;5093180;28;20028;-35
2021/05/02 12:41:02;;;;;;;1.58;1.25;;;12.20;39.60;;;;;;5092997;28;20024;-35
2021/05/02 12:43:30;;;;;;;1.65;1.15;;;12.20;40.00;;;;;;5093820;28;20036;-36
2021/05/02 12:45:56;;;;;;;1.90;1.40;;;12.20;40.20;;;;;;5091550;28;20032;-36
2021/05/02 12:48:26;;;;;;;1.17;0.90;;;11.80;41.30;;;;;;5093016;28;20024;-36
2021/05/02 12:50:53;;;;;;;4.90;2.50;;;11.50;41.50;;;;;;5092890;28;20044;-36
2021/05/02 12:53:18;;;;;;;1.08;0.90;;;11.80;41.20;;;;;;5093093;28;20020;-36
2021/05/02 12:55:57;;;;;;;4.07;1.17;;;11.80;41.60;;;;;;5093045;28;20448;-36
2021/05/02 12:58:37;;;;;;;5.15;1.33;;;12.10;41.20;;;;;;5092940;28;20024;-36